1887 Hurricane NOT_NAMED (1887326N12284)


IBTrACS version v04r00. Visit IBTrACS website for data access.
Please direct all questions to the IBTrACS Q and A forum

Storm track - Intensity - Wind Radii - Intensity Data - Source Data - All data

Summary Information

Storm ID 1887326N12284
Start Nov 21 12Z
Landfall Nov 27 15Z
Max Intensity 70 kt (Nov 27 12Z)
End Dec 7 09Z
ATCF IDs
Track status Best track data.
Spur track This storm is a spur track associated with the main storm: 1887339N19306

Storm track plot

Map of storm track

Intensity plots

Map of storm track

Radial wind information

No radial wind information for this storm


Position and Intensity Table

BASIN ISO_TIME_________ NATURE LAT LON MLC WIND
degrees north degrees east kts
NA 1887-11-21 12:00:00 TS 12.00 -76.00 30
NA 15:00:00 TS 12.00 -76.00 30
NA 18:00:00 TS 12.00 -76.00 30
NA 21:00:00 TS 12.00 -76.00 30
NA 1887-11-22 00:00:00 TS 12.00 -76.00 30
NA 03:00:00 TS 12.00 -76.00 30
NA 06:00:00 TS 12.00 -76.00 30
NA 09:00:00 TS 11.99 -75.99 30
NA 12:00:00 TS 12.00 -76.00 30
NA 15:00:00 TS 12.04 -76.04 30
NA 18:00:00 TS 12.10 -76.10 30
NA 21:00:00 TS 12.15 -76.15 30
NA 1887-11-23 00:00:00 TS 12.20 -76.20 30
NA 03:00:00 TS 12.25 -76.25 30
NA 06:00:00 TS 12.30 -76.30 30
NA 09:00:00 TS 12.35 -76.35 30
NA 12:00:00 TS 12.40 -76.40 30
NA 15:00:00 TS 12.45 -76.44 30
NA 18:00:00 TS 12.50 -76.50 30
NA 21:00:00 TS 12.54 -76.59 30
NA 1887-11-24 00:00:00 TS 12.60 -76.70 30
NA 03:00:00 TS 12.69 -76.85 30
NA 06:00:00 TS 12.80 -77.00 30
NA 09:00:00 TS 12.88 -77.12 30
NA 12:00:00 TS 13.00 -77.20 30
NA 15:00:00 TS 13.18 -77.21 30
NA 18:00:00 TS 13.40 -77.20 30
NA 21:00:00 TS 13.64 -77.26 32
NA 1887-11-25 00:00:00 TS 13.90 -77.30 35
NA 03:00:00 TS 14.16 -77.26 35
NA 06:00:00 TS 14.40 -77.20 35
NA 09:00:00 TS 14.61 -77.20 37
NA 12:00:00 TS 14.80 -77.20 40
NA 15:00:00 TS 14.96 -77.16 40
NA 18:00:00 TS 15.10 -77.10 40
NA 21:00:00 TS 15.25 -77.03 42
NA 1887-11-26 00:00:00 TS 15.40 -76.90 45
NA 03:00:00 TS 15.55 -76.67 47
NA 06:00:00 TS 15.70 -76.40 50
NA 09:00:00 TS 15.83 -76.19 52
NA 12:00:00 TS 16.00 -76.00 55
NA 15:00:00 TS 16.28 -75.80 57
NA 18:00:00 TS 16.60 -75.60 60
NA 21:00:00 TS 16.85 -75.40 60
NA 1887-11-27 00:00:00 TS 17.10 -75.20 60
NA 03:00:00 TS 17.40 -74.99 62
NA 06:00:00 TS 17.70 -74.80 65
NA 09:00:00 TS 17.93 -74.66 67
NA 12:00:00 TS 18.20 -74.50 70
NA 15:00:00 TS 18.57 -74.22 70
NA 18:00:00 TS 19.00 -73.90 70
NA 21:00:00 TS 19.45 -73.60 70
NA 1887-11-28 00:00:00 TS 19.90 -73.30 70
NA 03:00:00 TS 20.30 -72.99 70
NA 06:00:00 TS 20.70 -72.70 70
NA 09:00:00 TS 21.20 -72.42 70
NA 12:00:00 TS 21.60 -72.20 70
NA 15:00:00 TS 21.76 -72.08 70
NA 18:00:00 TS 21.80 -72.00 70
NA 21:00:00 TS 21.85 -71.91 70
NA 1887-11-29 00:00:00 TS 21.90 -71.80 70
NA 03:00:00 TS 22.00 -71.65 70
NA 06:00:00 TS 22.10 -71.50 70
NA 09:00:00 TS 22.15 -71.39 70
NA 12:00:00 TS 22.20 -71.30 70
NA 15:00:00 TS 22.30 -71.21 70
NA 18:00:00 TS 22.40 -71.10 70
NA 21:00:00 TS 22.45 -70.96 70
NA 1887-11-30 00:00:00 TS 22.50 -70.80 70
NA 03:00:00 TS 22.60 -70.64 70
NA 06:00:00 TS 22.70 -70.50 70
NA 09:00:00 TS 22.73 -70.42 70
NA 12:00:00 TS 22.80 -70.30 70
NA 15:00:00 TS 23.03 -70.03 67
NA 18:00:00 TS 23.30 -69.70 65
NA 21:00:00 TS 23.51 -69.41 65
NA 1887-12-01 00:00:00 TS 23.70 -69.10 65
NA 03:00:00 TS 23.90 -68.71 65
NA 06:00:00 TS 24.10 -68.30 65
NA 09:00:00 TS 24.30 -67.88 65
NA 12:00:00 TS 24.50 -67.50 65
NA 15:00:00 TS 24.70 -67.18 65
NA 18:00:00 TS 24.90 -66.90 65
NA 21:00:00 TS 25.10 -66.60 65
NA 1887-12-02 00:00:00 TS 25.30 -66.30 65
NA 03:00:00 TS 25.51 -66.01 65
NA 06:00:00 TS 25.70 -65.70 65
NA 09:00:00 TS 25.83 -65.36 65
NA 12:00:00 TS 26.00 -65.00 65
NA 15:00:00 TS 26.28 -64.61 65
NA 18:00:00 ET 26.60 -64.20 65
NA 21:00:00 ET 26.90 -63.80 65
NA 1887-12-03 00:00:00 ET 27.20 -63.40 65
NA 03:00:00 ET 27.51 -63.00 62
NA 06:00:00 ET 27.80 -62.60 60
NA 09:00:00 ET 28.01 -62.20 60
NA 12:00:00 ET 28.30 -61.80 60
NA 15:00:00 ET 28.81 -61.40 60
NA 18:00:00 ET 29.40 -61.00 60
NA 21:00:00 ET 29.97 -60.60 60
NA 1887-12-04 00:00:00 ET 30.40 -60.20 60
NA 03:00:00 ET 30.52 -59.81 60
NA 06:00:00 ET 30.50 -59.40 60
NA 09:00:00 ET 30.53 -58.85 60
NA 12:00:00 ET 30.50 -58.50 60
NA 15:00:00 ET 30.40 -58.66 60
NA 18:00:00 ET 30.20 -59.00 60
NA 21:00:00 ET 29.94 -59.20 60
NA 1887-12-05 00:00:00 ET 29.60 -59.30 60
NA 03:00:00 ET 29.21 -59.29 60
NA 06:00:00 ET 28.80 -59.20 60
NA 09:00:00 ET 28.34 -59.13 60
NA 12:00:00 ET 28.00 -59.00 60
NA 15:00:00 ET 27.90 -58.77 60
NA 18:00:00 ET 28.00 -58.50 60
NA 21:00:00 ET 28.23 -58.25 60
NA 1887-12-06 00:00:00 ET 28.50 -58.00 60
NA 03:00:00 ET 28.67 -57.75 60
NA 06:00:00 ET 28.80 -57.50 60
NA 09:00:00 ET 28.81 -57.31 60
NA 12:00:00 ET 29.00 -57.00 60
NA 15:00:00 ET 29.65 -56.40 60
NA 18:00:00 ET 30.50 -55.70 60
NA 21:00:00 ET 31.25 -55.10 60
NA 1887-12-07 00:00:00 ET 32.00 -54.50 60
NA 03:00:00 ET 32.75 -53.85 60
NA 06:00:00 ET 33.50 -53.20 60
NA 09:00:00 ET 34.30 -52.58

Source Information

Agency Information
USA
TOKYO
CMA
HKO
NEWDELHI
REUNION
BOM
NADI
WELLINGTON
DS824
TD9636
TD9635
NEUMANN
MLC

All available IBTrACS Data

SEASON BASIN SUBBASIN ISO_TIME_________ NATURE LAT LON DIST2LAND LANDFALL IFLAG USA SSHS MLC LAT MLC LON MLC CLASS MLC WIND STORM SPEED STORM DIR
Year degrees north degrees east km km 1 degrees north degrees east kts kts degrees
1887 NA CS 1887-11-21 12:00:00 TS 12.00 -76.00 154 154 _____________O -1 12.00 -76.00 TD 30 0 0
1887 NA CS 15:00:00 TS 12.00 -76.00 154 154 _____________P -1 12.00 -76.00 TD 30 0 0
1887 NA CS 18:00:00 TS 12.00 -76.00 154 154 _____________O -1 12.00 -76.00 TD 30 0 0
1887 NA CS 21:00:00 TS 12.00 -76.00 154 154 _____________P -1 12.00 -76.00 TD 30 0 0
1887 NA CS 1887-11-22 00:00:00 TS 12.00 -76.00 154 154 _____________O -1 12.00 -76.00 TD 30 0 0
1887 NA CS 03:00:00 TS 12.00 -76.00 154 154 _____________P -1 12.00 -76.00 TD 30 0 0
1887 NA CS 06:00:00 TS 12.00 -76.00 154 154 _____________O -1 12.00 -76.00 TD 30 0 0
1887 NA CS 09:00:00 TS 11.99 -75.99 154 154 _____________P -1 11.99 -75.99 TD 30 0 0
1887 NA CS 12:00:00 TS 12.00 -76.00 154 154 _____________O -1 12.00 -76.00 TD 30 1 309
1887 NA CS 15:00:00 TS 12.04 -76.04 154 154 _____________P -1 12.04 -76.04 TD 30 1 317
1887 NA CS 18:00:00 TS 12.10 -76.10 169 169 _____________O -1 12.10 -76.10 TD 30 2 317
1887 NA CS 21:00:00 TS 12.15 -76.15 179 175 _____________P -1 12.15 -76.15 TD 30 1 317
1887 NA CS 1887-11-23 00:00:00 TS 12.20 -76.20 184 184 _____________O -1 12.20 -76.20 TD 30 1 317
1887 NA CS 03:00:00 TS 12.25 -76.25 194 184 _____________P -1 12.25 -76.25 TD 30 1 317
1887 NA CS 06:00:00 TS 12.30 -76.30 200 200 _____________O -1 12.30 -76.30 TD 30 1 317
1887 NA CS 09:00:00 TS 12.35 -76.35 209 206 _____________P -1 12.35 -76.35 TD 30 1 317
1887 NA CS 12:00:00 TS 12.40 -76.40 215 215 _____________O -1 12.40 -76.40 TD 30 1 320
1887 NA CS 15:00:00 TS 12.45 -76.44 215 215 _____________P -1 12.45 -76.44 TD 30 1 317
1887 NA CS 18:00:00 TS 12.50 -76.50 230 230 _____________O -1 12.50 -76.50 TD 30 2 305
1887 NA CS 21:00:00 TS 12.54 -76.59 237 237 _____________P -1 12.54 -76.59 TD 30 2 297
1887 NA CS 1887-11-24 00:00:00 TS 12.60 -76.70 252 252 _____________O -1 12.60 -76.70 TD 30 3 300
1887 NA CS 03:00:00 TS 12.69 -76.85 268 268 _____________P -1 12.69 -76.85 TD 30 4 304
1887 NA CS 06:00:00 TS 12.80 -77.00 290 290 _____________O -1 12.80 -77.00 TD 30 3 306
1887 NA CS 09:00:00 TS 12.88 -77.12 306 306 _____________P -1 12.88 -77.12 TD 30 3 316
1887 NA CS 12:00:00 TS 13.00 -77.20 321 321 _____________O -1 13.00 -77.20 TD 30 3 344
1887 NA CS 15:00:00 TS 13.18 -77.21 339 339 _____________P -1 13.18 -77.21 TD 30 4 0
1887 NA CS 18:00:00 TS 13.40 -77.20 357 357 _____________O -1 13.40 -77.20 TD 30 5 353
1887 NA CS 21:00:00 TS 13.64 -77.26 381 381 _____________P -1 13.64 -77.26 TD 32 5 349
1887 NA CS 1887-11-25 00:00:00 TS 13.90 -77.30 409 403 _____________O -1 13.90 -77.30 TS 35 5 0
1887 NA CS 03:00:00 TS 14.16 -77.26 391 369 _____________P -1 14.16 -77.26 TS 35 5 11
1887 NA CS 06:00:00 TS 14.40 -77.20 369 346 _____________O -1 14.40 -77.20 TS 35 5 7
1887 NA CS 09:00:00 TS 14.61 -77.20 346 324 _____________P -1 14.61 -77.20 TS 37 4 0
1887 NA CS 12:00:00 TS 14.80 -77.20 324 313 _____________O -1 14.80 -77.20 TS 40 3 7
1887 NA CS 15:00:00 TS 14.96 -77.16 302 291 _____________P -1 14.96 -77.16 TS 40 3 17
1887 NA CS 18:00:00 TS 15.10 -77.10 291 279 _____________O -1 15.10 -77.10 TS 40 3 25
1887 NA CS 21:00:00 TS 15.25 -77.03 280 259 _____________P -1 15.25 -77.03 TS 42 4 33
1887 NA CS 1887-11-26 00:00:00 TS 15.40 -76.90 259 249 _____________O -1 15.40 -76.90 TS 45 5 50
1887 NA CS 03:00:00 TS 15.55 -76.67 240 235 _____________P -1 15.55 -76.67 TS 47 6 58
1887 NA CS 06:00:00 TS 15.70 -76.40 239 233 _____________O -1 15.70 -76.40 TS 50 5 59
1887 NA CS 09:00:00 TS 15.83 -76.19 235 213 _____________P -1 15.83 -76.19 TS 52 5 52
1887 NA CS 12:00:00 TS 16.00 -76.00 213 184 _____________O -1 16.00 -76.00 TS 55 6 40
1887 NA CS 15:00:00 TS 16.28 -75.80 184 158 _____________P -1 16.28 -75.80 TS 57 7 33
1887 NA CS 18:00:00 TS 16.60 -75.60 158 143 _____________O -1 16.60 -75.60 TS 60 7 34
1887 NA CS 21:00:00 TS 16.85 -75.40 149 138 _____________P -1 16.85 -75.40 TS 60 6 38
1887 NA CS 1887-11-27 00:00:00 TS 17.10 -75.20 138 119 _____________O -1 17.10 -75.20 TS 60 7 35
1887 NA CS 03:00:00 TS 17.40 -74.99 119 79 _____________P -1 17.40 -74.99 TS 62 7 32
1887 NA CS 06:00:00 TS 17.70 -74.80 79 54 _____________O -1 17.70 -74.80 HU 65 6 30
1887 NA CS 09:00:00 TS 17.93 -74.66 54 15 _____________P -1 17.93 -74.66 HU 67 6 30
1887 NA CS 12:00:00 TS 18.20 -74.50 15 0 _____________O -1 18.20 -74.50 HU 70 8 34
1887 NA NA 15:00:00 TS 18.57 -74.22 0 0 _____________P -1 18.57 -74.22 HU 70 10 35
1887 NA CS 18:00:00 TS 19.00 -73.90 45 30 _____________O -1 19.00 -73.90 HU 70 11 34
1887 NA CS 21:00:00 TS 19.45 -73.60 30 0 _____________P -1 19.45 -73.60 HU 70 11 32
1887 NA NA 1887-11-28 00:00:00 TS 19.90 -73.30 11 11 _____________O -1 19.90 -73.30 HU 70 10 34
1887 NA NA 03:00:00 TS 20.30 -72.99 44 44 _____________P -1 20.30 -72.99 HU 70 10 35
1887 NA NA 06:00:00 TS 20.70 -72.70 53 47 _____________O -1 20.70 -72.70 HU 70 10 31
1887 NA NA 09:00:00 TS 21.20 -72.42 62 62 _____________P -1 21.20 -72.42 HU 70 10 27
1887 NA NA 12:00:00 TS 21.60 -72.20 94 94 _____________O -1 21.60 -72.20 HU 70 7 29
1887 NA NA 15:00:00 TS 21.76 -72.08 114 114 _____________P -1 21.76 -72.08 HU 70 3 43
1887 NA NA 18:00:00 TS 21.80 -72.00 123 123 _____________O -1 21.80 -72.00 HU 70 2 60
1887 NA NA 21:00:00 TS 21.85 -71.91 132 132 _____________P -1 21.85 -71.91 HU 70 2 61
1887 NA NA 1887-11-29 00:00:00 TS 21.90 -71.80 146 146 _____________O -1 21.90 -71.80 HU 70 3 58
1887 NA NA 03:00:00 TS 22.00 -71.65 161 161 _____________P -1 22.00 -71.65 HU 70 3 54
1887 NA NA 06:00:00 TS 22.10 -71.50 184 184 _____________O -1 22.10 -71.50 HU 70 3 58
1887 NA NA 09:00:00 TS 22.15 -71.39 193 193 _____________P -1 22.15 -71.39 HU 70 2 61
1887 NA NA 12:00:00 TS 22.20 -71.30 208 208 _____________O -1 22.20 -71.30 HU 70 2 49
1887 NA NA 15:00:00 TS 22.30 -71.21 222 222 _____________P -1 22.30 -71.21 HU 70 3 43
1887 NA NA 18:00:00 TS 22.40 -71.10 237 237 _____________O -1 22.40 -71.10 HU 70 3 57
1887 NA NA 21:00:00 TS 22.45 -70.96 252 252 _____________P -1 22.45 -70.96 HU 70 3 70
1887 NA NA 1887-11-30 00:00:00 TS 22.50 -70.80 269 269 _____________O -1 22.50 -70.80 HU 70 3 63
1887 NA NA 03:00:00 TS 22.60 -70.64 292 292 _____________P -1 22.60 -70.64 HU 70 3 54
1887 NA NA 06:00:00 TS 22.70 -70.50 307 307 _____________O -1 22.70 -70.50 HU 70 2 58
1887 NA NA 09:00:00 TS 22.73 -70.42 316 316 _____________P -1 22.73 -70.42 HU 70 2 61
1887 NA NA 12:00:00 TS 22.80 -70.30 330 330 _____________O -1 22.80 -70.30 HU 70 5 50
1887 NA NA 15:00:00 TS 23.03 -70.03 363 363 _____________P -1 23.03 -70.03 HU 67 7 48
1887 NA NA 18:00:00 TS 23.30 -69.70 402 402 _____________O -1 23.30 -69.70 HU 65 7 50
1887 NA NA 21:00:00 TS 23.51 -69.41 431 431 _____________P -1 23.51 -69.41 HU 65 7 54
1887 NA NA 1887-12-01 00:00:00 TS 23.70 -69.10 462 462 _____________O -1 23.70 -69.10 HU 65 8 58
1887 NA NA 03:00:00 TS 23.90 -68.71 498 498 _____________P -1 23.90 -68.71 HU 65 8 61
1887 NA NA 06:00:00 TS 24.10 -68.30 532 532 _____________O -1 24.10 -68.30 HU 65 9 62
1887 NA NA 09:00:00 TS 24.30 -67.88 568 568 _____________P -1 24.30 -67.88 HU 65 8 61
1887 NA NA 12:00:00 TS 24.50 -67.50 605 605 _____________O -1 24.50 -67.50 HU 65 8 58
1887 NA NA 15:00:00 TS 24.70 -67.18 638 638 _____________P -1 24.70 -67.18 HU 65 7 54
1887 NA NA 18:00:00 TS 24.90 -66.90 672 672 _____________O -1 24.90 -66.90 HU 65 7 53
1887 NA NA 21:00:00 TS 25.10 -66.60 705 705 _____________P -1 25.10 -66.60 HU 65 7 54
1887 NA NA 1887-12-02 00:00:00 TS 25.30 -66.30 738 738 _____________O -1 25.30 -66.30 HU 65 7 53
1887 NA NA 03:00:00 TS 25.51 -66.01 771 771 _____________P -1 25.51 -66.01 HU 65 7 54
1887 NA NA 06:00:00 TS 25.70 -65.70 805 805 _____________O -1 25.70 -65.70 HU 65 7 61
1887 NA NA 09:00:00 TS 25.83 -65.36 827 827 _____________P -1 25.83 -65.36 HU 65 7 65
1887 NA NA 12:00:00 TS 26.00 -65.00 851 851 _____________O -1 26.00 -65.00 HU 65 8 57
1887 NA NA 15:00:00 TS 26.28 -64.61 889 889 _____________P -1 26.28 -64.61 HU 65 9 50
1887 NA NA 18:00:00 ET 26.60 -64.20 927 927 _____________O -1 26.60 -64.20 EX 65 10 49
1887 NA NA 21:00:00 ET 26.90 -63.80 967 967 _____________P -1 26.90 -63.80 EX 65 9 50
1887 NA NA 1887-12-03 00:00:00 ET 27.20 -63.40 1009 1009 _____________O -1 27.20 -63.40 EX 65 9 50
1887 NA NA 03:00:00 ET 27.51 -63.00 1051 1051 _____________P -1 27.51 -63.00 EX 62 9 50
1887 NA NA 06:00:00 ET 27.80 -62.60 1094 1094 _____________O -1 27.80 -62.60 EX 60 9 54
1887 NA NA 09:00:00 ET 28.01 -62.20 1127 1127 _____________P -1 28.01 -62.20 EX 60 9 55
1887 NA NA 12:00:00 ET 28.30 -61.80 1172 1172 _____________O -1 28.30 -61.80 EX 60 11 41
1887 NA NA 15:00:00 ET 28.81 -61.40 1238 1238 _____________P -1 28.81 -61.40 EX 60 13 33
1887 NA NA 18:00:00 ET 29.40 -61.00 1314 1314 _____________O -1 29.40 -61.00 EX 60 14 31
1887 NA NA 21:00:00 ET 29.97 -60.60 1391 1391 _____________P -1 29.97 -60.60 EX 60 12 35
1887 NA NA 1887-12-04 00:00:00 ET 30.40 -60.20 1447 1447 _____________O -1 30.40 -60.20 EX 60 9 51
1887 NA NA 03:00:00 ET 30.52 -59.81 1473 1473 _____________P -1 30.52 -59.81 EX 60 7 82
1887 NA NA 06:00:00 ET 30.50 -59.40 1489 1489 _____________O -1 30.50 -59.40 EX 60 8 90
1887 NA NA 09:00:00 ET 30.53 -58.85 1511 1511 _____________P -1 30.53 -58.85 EX 60 8 90
1887 NA NA 12:00:00 ET 30.50 -58.50 1529 1515 _____________O -1 30.50 -58.50 EX 60 2 129
1887 NA NA 15:00:00 ET 30.40 -58.66 1510 1477 _____________P -1 30.40 -58.66 EX 60 5 235
1887 NA NA 18:00:00 ET 30.20 -59.00 1477 1448 _____________O -1 30.20 -59.00 EX 60 7 225
1887 NA NA 21:00:00 ET 29.94 -59.20 1438 1404 _____________P -1 29.94 -59.20 EX 60 7 203
1887 NA NA 1887-12-05 00:00:00 ET 29.60 -59.30 1404 1365 _____________O -1 29.60 -59.30 EX 60 7 186
1887 NA NA 03:00:00 ET 29.21 -59.29 1365 1331 _____________P -1 29.21 -59.29 EX 60 8 174
1887 NA NA 06:00:00 ET 28.80 -59.20 1331 1298 _____________O -1 28.80 -59.20 EX 60 9 171
1887 NA NA 09:00:00 ET 28.34 -59.13 1289 1266 _____________P -1 28.34 -59.13 EX 60 8 167
1887 NA NA 12:00:00 ET 28.00 -59.00 1266 1262 _____________O -1 28.00 -59.00 EX 60 5 144
1887 NA NA 15:00:00 ET 27.90 -58.77 1268 1268 _____________P -1 27.90 -58.77 EX 60 4 90
1887 NA NA 18:00:00 ET 28.00 -58.50 1294 1294 _____________O -1 28.00 -58.50 EX 60 6 55
1887 NA NA 21:00:00 ET 28.23 -58.25 1323 1323 _____________P -1 28.23 -58.25 EX 60 7 41
1887 NA NA 1887-12-06 00:00:00 ET 28.50 -58.00 1368 1368 _____________O -1 28.50 -58.00 EX 60 6 45
1887 NA NA 03:00:00 ET 28.67 -57.75 1403 1403 _____________P -1 28.67 -57.75 EX 60 5 56
1887 NA NA 06:00:00 ET 28.80 -57.50 1424 1424 _____________O -1 28.80 -57.50 EX 60 4 71
1887 NA NA 09:00:00 ET 28.81 -57.31 1436 1436 _____________P -1 28.81 -57.31 EX 60 5 66
1887 NA NA 12:00:00 ET 29.00 -57.00 1471 1471 _____________O -1 29.00 -57.00 EX 60 12 43
1887 NA NA 15:00:00 ET 29.65 -56.40 1568 1568 _____________P -1 29.65 -56.40 EX 60 19 37
1887 NA NA 18:00:00 ET 30.50 -55.70 1676 1631 _____________O -1 30.50 -55.70 EX 60 20 35
1887 NA NA 21:00:00 ET 31.25 -55.10 1635 1575 _____________P -1 31.25 -55.10 EX 60 18 34
1887 NA NA 1887-12-07 00:00:00 ET 32.00 -54.50 1575 1522 _____________O -1 32.00 -54.50 EX 60 18 35
1887 NA NA 03:00:00 ET 32.75 -53.85 1525 1457 _____________P -1 32.75 -53.86 EX 60 19 36
1887 NA NA 06:00:00 ET 33.50 -53.20 1457 1369 _____________O -1 33.50 -53.20 EX 60 19 34
1887 NA NA 09:00:00 ET 34.30 -52.58 1369 ______________ -1 EX 19 33